Situação meteorológica que não inspira cuidado.   -   Não há avisos

Nearby METAR Reports

 

LEZL - Sevilla, Spain
Distance from station: ENE 8km
Actualizado: 22/09/2018 13:00
Céu limpo
Céu limpo
 Vento de E
Vento: E 7 km/h
Temperatura: 34°C
Ponto de Orvalho: 11°C
Humidade: 24%
Barómetro: 1020 hPa
Resumo: Céu limpo
Visibility: greater than 10 km
2018/09/22 11:00 LEZL 221100Z 08004KT 020V120 CAVOK 34/11 Q1020 NOSIG
LEMO - Morón, Spain
Distance from station: SE 43km
Actualizado: 22/09/2018 13:00
Céu limpo
Céu limpo
 Vento de ENE
Vento: ENE 19 km/h
Temperatura: 34°C
Ponto de Orvalho: 12°C
Humidade: 26%
Barómetro: 1020 hPa
Resumo: Céu limpo
Visibility: greater than 10 km
2018/09/22 11:00 LEMO 221100Z 06010KT 030V100 CAVOK 34/12 Q1020 NOSIG
LEJR - Jeréz, Spain
Distance from station: S 71km
Actualizado: 22/09/2018 13:00
Céu limpo
Céu limpo
 Vento de varies
Vento: varies 6 km/h
Temperatura: 34°C
Ponto de Orvalho: 12°C
Humidade: 26%
Barómetro: 1020 hPa
Resumo: Céu limpo
Visibility: greater than 10 km
2018/09/22 11:00 LEJR 221100Z VRB03KT CAVOK 34/12 Q1020
 
LERT - Rota, Spain
Distance from station: SSW 89km
Actualizado: 22/09/2018 13:00
Céu limpo
Céu limpo
 Vento de ESE
Vento: ESE 13 km/h
Temperatura: 33°C
Ponto de Orvalho: 15°C
Humidade: 34%
Barómetro: 1020 hPa
Resumo: Céu limpo
Visibility: greater than 10 km
2018/09/22 11:00 LERT 221100Z 11007KT 080V140 CAVOK 33/15 Q1020 NOSIG
LEMG - Málaga, Spain
Distance from station: ESE 157km
Actualizado: 22/09/2018 13:00
Céu limpo
Céu limpo
 Vento de ESE
Vento: ESE 13 km/h
Temperatura: 26°C
Ponto de Orvalho: 21°C
Humidade: 74%
Barómetro: 1022 hPa
Resumo: Céu limpo
Visibility: greater than 10 km
2018/09/22 11:00 LEMG 221100Z 12007KT 100V160 CAVOK 26/21 Q1022 NOSIG
LEBA - Córdoba, Spain
Distance from station: ENE 115km
Actualizado: 22/09/2018 13:00
Céu limpo
Céu limpo
 Vento de E
Vento: E 13 km/h
Temperatura: 32°C
Ponto de Orvalho: 13°C
Humidade: 31%
Barómetro: 1021 hPa
Resumo: Céu limpo
Visibility: greater than 10 km
2018/09/22 11:00 LEBA 221100Z 09007KT 050V120 CAVOK 32/13 Q1021
 
LEGR - Granada, Spain
Distance from station: E 198km
Actualizado: 22/09/2018 13:00
Céu limpo
Céu limpo
 Vento de calm
Vento: Calmo
Temperatura: 28°C
Índice de Calor: 28°C
Ponto de Orvalho: 14°C
Humidade: 42%
Barómetro: 1024 hPa
Resumo: Céu limpo
Visibility: greater than 10 km
2018/09/22 11:00 LEGR 221100Z 00000KT CAVOK 28/14 Q1024
LEAM - Almería, Spain
Distance from station: E 326km
Actualizado: 22/09/2018 13:00
Céu limpo
Céu limpo
 Vento de SSW
Vento: SSW 13 km/h
Temperatura: 27°C
Índice de Calor: 29°C
Ponto de Orvalho: 22°C
Humidade: 74%
Barómetro: 1022 hPa
Resumo: Céu limpo
Visibility: greater than 10 km
2018/09/22 11:00 LEAM 221100Z 20007KT 170V240 CAVOK 27/22 Q1022
LEMD - Madrid/Barajas, Spain
Distance from station: NNE 402km
Actualizado: 22/09/2018 13:00
Céu limpo
Céu limpo
 Vento de S
Vento: S 7 km/h
Temperatura: 29°C
Ponto de Orvalho: 13°C
Humidade: 37%
Barómetro: 1025 hPa
Resumo: Céu limpo
Visibility: greater than 10 km
2018/09/22 11:00 LEMD 221100Z 17004KT 110V230 CAVOK 29/13 Q1025 NOSIG
 
LEVD - Valladolid, Spain
Distance from station: N 492km
Actualizado: 22/09/2018 13:00
Céu limpo
Céu limpo
 Vento de NW
Vento: NW 4 km/h
Temperatura: 26°C
Ponto de Orvalho: 8°C
Humidade: 32%
Barómetro: 1027 hPa
Resumo: Céu limpo
Visibility: greater than 10 km
2018/09/22 11:00 LEVD 221100Z 31002KT CAVOK 26/08 Q1027
LEBL - Barcelona, Spain
Distance from station: NE 816km
Actualizado: 22/09/2018 13:00
Few Clouds
Few Clouds
 Vento de SSW
Vento: SSW 20 km/h
Temperatura: 28°C
Índice de Calor: 30°C
Ponto de Orvalho: 21°C
Humidade: 66%
Barómetro: 1021 hPa
Clouds: Few Clouds
Visibility: 10 km
Cloud details: Few Clouds 457 m
2018/09/22 11:00 LEBL 221100Z 21011KT 9999 FEW015 28/21 Q1021 NOSIG
LEVC - Valencia, Spain
Distance from station: ENE 535km
Actualizado: 22/09/2018 13:00
Céu limpo
Céu limpo
 Vento de varies
Vento: varies 6 km/h
Temperatura: 30°C
Índice de Calor: 30°C
Ponto de Orvalho: 16°C
Humidade: 43%
Barómetro: 1022 hPa
Resumo: Céu limpo
Visibility: greater than 10 km
2018/09/22 11:00 LEVC 221100Z VRB03KT CAVOK 30/16 Q1022 NOSIG